METAR Data
IDs: Format: Raw Decoded Include TAF

Data at: 1827 UTC 16 Oct 2021

UADD 161800Z 22003MPS 9999 NSC 05/01 Q1021 R13/0///65 NOSIG RMK QFE709/0945